Time;durP1;ratioP1;P1;durP2;ratioP2;P2;SDS_P1;SDS_P2;PMS_P1;PMS_P2;Temp;Humidity;BMP_temperature;BMP_pressure;BME280_temperature;BME280_humidity;BME280_pressure;Samples;Min_cycle;Max_cycle;Signal;HPM_P1;HPM_P2
2023/04/13 00:02:12;;;;;;;1.55;0.80;;;;;;;;;;5059880;28;20080;-53
2023/04/13 00:04:38;;;;;;;1.20;0.70;;;;;;;;;;5064142;28;20529;-55
2023/04/13 00:07:04;;;;;;;0.90;0.80;;;;;;;;;;5065001;28;20057;-55
2023/04/13 00:09:31;;;;;;;1.48;0.70;;;;;;;;;;5046359;28;20519;-53
2023/04/13 00:11:58;;;;;;;1.15;0.88;;;;;;;;;;5057362;28;20115;-56
2023/04/13 00:14:26;;;;;;;1.10;0.73;;;;;;;;;;5067027;28;20052;-56
2023/04/13 00:16:53;;;;;;;3.45;1.17;;;;;;;;;;5066113;28;20052;-52
2023/04/13 00:19:19;;;;;;;1.20;1.02;;;;;;;;;;5068289;28;20103;-55
2023/04/13 00:21:46;;;;;;;1.85;0.60;;;;;;;;;;5066609;28;20121;-56
2023/04/13 00:24:12;;;;;;;5.45;1.13;;;;;;;;;;5048602;28;20136;-56
2023/04/13 00:26:39;;;;;;;3.83;1.00;;;;;;;;;;5065612;28;20057;-54
2023/04/13 00:29:05;;;;;;;2.92;1.25;;;;;;;;;;5058606;28;20153;-53
2023/04/13 00:31:32;;;;;;;1.23;0.70;;;;;;;;;;5058891;28;20064;-56
2023/04/13 00:33:59;;;;;;;1.50;0.80;;;;;;;;;;5066077;28;20426;-54
2023/04/13 00:36:26;;;;;;;1.50;1.00;;;;;;;;;;5065965;28;20782;-57
2023/04/13 00:38:53;;;;;;;5.20;1.00;;;;;;;;;;5053354;28;20061;-52
2023/04/13 00:41:19;;;;;;;2.20;0.88;;;;;;;;;;5064483;28;20099;-56
2023/04/13 00:43:46;;;;;;;4.10;1.00;;;;;;;;;;5048708;28;20660;-54
2023/04/13 00:46:15;;;;;;;3.20;0.98;;;;;;;;;;5076272;28;20137;-53
2023/04/13 00:48:41;;;;;;;1.08;0.93;;;;;;;;;;5056997;28;20128;-53
2023/04/13 00:51:08;;;;;;;1.95;1.00;;;;;;;;;;5056446;28;20522;-53
2023/04/13 00:53:34;;;;;;;1.45;0.90;;;;;;;;;;5046819;28;20146;-52
2023/04/13 00:56:04;;;;;;;2.55;1.08;;;;;;;;;;5059704;28;20143;-53
2023/04/13 00:58:31;;;;;;;2.33;1.15;;;;;;;;;;5053092;28;20137;-51
2023/04/13 01:00:58;;;;;;;1.48;1.02;;;;;;;;;;5072633;28;20053;-56
2023/04/13 01:03:28;;;;;;;2.25;1.15;;;;;;;;;;5045954;28;20053;-54
2023/04/13 01:06:08;;;;;;;1.00;0.90;;;;;;;;;;5064879;28;20049;-55
2023/04/13 01:08:37;;;;;;;2.40;0.73;;;;;;;;;;5060544;28;20052;-54
2023/04/13 01:11:04;;;;;;;1.35;1.05;;;;;;;;;;5061682;28;20045;-51
2023/04/13 01:13:39;;;;;;;1.23;1.00;;;;;;;;;;5054099;28;20832;-56
2023/04/13 01:16:19;;;;;;;1.43;0.80;;;;;;;;;;5073917;28;20050;-53
2023/04/13 01:18:47;;;;;;;1.17;0.75;;;;;;;;;;5058884;28;20084;-53
2023/04/13 01:21:14;;;;;;;3.35;1.20;;;;;;;;;;5045272;28;20115;-54
2023/04/13 01:23:59;;;;;;;3.03;1.23;;;;;;;;;;5045716;28;20152;-52
2023/04/13 01:26:32;;;;;;;1.97;1.07;;;;;;;;;;5045985;28;20168;-54
2023/04/13 01:28:59;;;;;;;3.15;1.00;;;;;;;;;;5050935;28;20057;-51
2023/04/13 01:31:25;;;;;;;1.52;1.35;;;;;;;;;;5063820;28;20087;-54
2023/04/13 01:33:52;;;;;;;1.45;1.15;;;;;;;;;;5063709;28;20053;-52
2023/04/13 01:36:19;;;;;;;2.10;1.10;;;;;;;;;;5056675;28;20057;-50
2023/04/13 01:38:45;;;;;;;4.15;1.77;;;;;;;;;;5075136;28;20431;-50
2023/04/13 01:41:12;;;;;;;2.83;1.33;;;;;;;;;;5047861;28;20057;-54
2023/04/13 01:43:39;;;;;;;2.90;1.40;;;;;;;;;;5063251;28;20048;-54
2023/04/13 01:46:05;;;;;;;2.70;1.40;;;;;;;;;;5065462;28;20537;-50
2023/04/13 01:48:52;;;;;;;3.88;1.85;;;;;;;;;;5066122;28;20575;-50
2023/04/13 01:51:20;;;;;;;3.50;1.83;;;;;;;;;;5063405;28;20049;-51
2023/04/13 01:53:52;;;;;;;3.90;1.52;;;;;;;;;;5064885;28;20507;-55
2023/04/13 01:56:21;;;;;;;2.00;1.40;;;;;;;;;;5050283;28;20058;-51
2023/04/13 01:58:50;;;;;;;1.45;1.35;;;;;;;;;;5064557;28;20144;-50
2023/04/13 02:01:17;;;;;;;2.55;1.30;;;;;;;;;;5066001;28;20053;-50
2023/04/13 02:03:44;;;;;;;3.42;1.30;;;;;;;;;;5063084;28;20550;-49
2023/04/13 02:06:10;;;;;;;2.30;1.10;;;;;;;;;;5066423;28;20058;-51
2023/04/13 02:08:37;;;;;;;1.10;1.00;;;;;;;;;;5053392;28;20053;-49
2023/04/13 02:11:03;;;;;;;1.05;0.95;;;;;;;;;;5059151;28;20084;-54
2023/04/13 02:13:30;;;;;;;3.85;1.13;;;;;;;;;;5057562;28;20049;-51
2023/04/13 02:15:56;;;;;;;2.00;1.00;;;;;;;;;;5065381;28;20057;-50
2023/04/13 02:18:23;;;;;;;3.97;1.30;;;;;;;;;;5068551;28;20048;-51
2023/04/13 02:21:06;;;;;;;2.55;1.20;;;;;;;;;;5063573;28;20048;-53
2023/04/13 02:23:34;;;;;;;4.53;1.17;;;;;;;;;;5056446;28;20069;-49
2023/04/13 02:26:01;;;;;;;1.85;1.23;;;;;;;;;;5067256;28;20100;-52
2023/04/13 02:28:28;;;;;;;2.38;1.33;;;;;;;;;;5066617;28;20156;-49
2023/04/13 02:30:55;;;;;;;1.77;1.33;;;;;;;;;;5052261;28;20107;-50
2023/04/13 02:33:21;;;;;;;1.90;1.30;;;;;;;;;;5074081;28;20056;-51
2023/04/13 02:35:48;;;;;;;2.50;1.30;;;;;;;;;;5057324;28;20049;-54
2023/04/13 02:38:15;;;;;;;1.13;1.02;;;;;;;;;;5072775;28;20053;-56
2023/04/13 02:40:42;;;;;;;3.47;1.50;;;;;;;;;;5073873;28;20063;-54
2023/04/13 02:43:09;;;;;;;1.48;1.10;;;;;;;;;;5069469;28;20143;-54
2023/04/13 02:45:36;;;;;;;2.35;1.40;;;;;;;;;;5066929;28;20085;-56
2023/04/13 02:48:03;;;;;;;3.63;1.38;;;;;;;;;;5063908;28;20486;-55
2023/04/13 02:50:30;;;;;;;1.83;1.23;;;;;;;;;;5057666;28;20046;-56
2023/04/13 02:52:56;;;;;;;3.25;1.40;;;;;;;;;;5068599;28;20059;-55
2023/04/13 02:55:22;;;;;;;4.05;1.23;;;;;;;;;;5064064;28;20520;-55
2023/04/13 02:57:49;;;;;;;3.13;1.00;;;;;;;;;;5055236;28;20044;-51
2023/04/13 03:00:15;;;;;;;0.98;0.93;;;;;;;;;;5066252;28;20053;-53
2023/04/13 03:02:43;;;;;;;1.10;1.00;;;;;;;;;;5049004;28;20160;-52
2023/04/13 03:05:09;;;;;;;2.50;1.08;;;;;;;;;;5047987;28;20060;-50
2023/04/13 03:07:36;;;;;;;3.88;0.90;;;;;;;;;;5062727;28;20144;-55
2023/04/13 03:10:04;;;;;;;3.42;1.00;;;;;;;;;;5088158;28;20048;-49
2023/04/13 03:12:31;;;;;;;2.63;1.08;;;;;;;;;;5065480;28;20057;-52
2023/04/13 03:15:01;;;;;;;2.97;1.10;;;;;;;;;;5056801;28;20132;-52
2023/04/13 03:17:31;;;;;;;5.55;1.10;;;;;;;;;;5059936;28;20053;-51
2023/04/13 03:19:58;;;;;;;1.98;0.95;;;;;;;;;;5067694;28;20107;-53
2023/04/13 03:22:29;;;;;;;4.50;1.35;;;;;;;;;;5067416;28;20053;-50
2023/04/13 03:24:55;;;;;;;4.28;1.80;;;;;;;;;;5067354;28;20254;-52
2023/04/13 03:27:22;;;;;;;1.65;1.33;;;;;;;;;;5066349;28;20053;-50
2023/04/13 03:29:48;;;;;;;4.25;1.60;;;;;;;;;;5067049;28;20053;-51
2023/04/13 03:32:15;;;;;;;10.25;2.10;;;;;;;;;;5062302;28;20945;-54
2023/04/13 03:34:42;;;;;;;4.00;1.55;;;;;;;;;;5066392;28;20140;-54
2023/04/13 03:37:10;;;;;;;3.78;1.55;;;;;;;;;;5054779;28;20049;-53
2023/04/13 03:39:36;;;;;;;3.40;1.77;;;;;;;;;;5047327;28;20085;-52
2023/04/13 03:42:03;;;;;;;2.80;1.70;;;;;;;;;;5059813;28;20431;-55
2023/04/13 03:44:30;;;;;;;2.28;1.38;;;;;;;;;;5063607;28;20049;-50
2023/04/13 03:46:56;;;;;;;5.32;1.67;;;;;;;;;;5071100;28;20060;-56
2023/04/13 03:49:22;;;;;;;4.00;1.73;;;;;;;;;;5067950;28;20190;-54
2023/04/13 03:51:49;;;;;;;6.28;1.83;;;;;;;;;;5055941;28;20053;-55
2023/04/13 03:54:16;;;;;;;5.03;1.67;;;;;;;;;;5047233;28;20050;-52
2023/04/13 03:56:42;;;;;;;4.93;1.38;;;;;;;;;;5057030;28;20629;-52
2023/04/13 03:59:08;;;;;;;6.00;1.23;;;;;;;;;;5052659;28;20511;-51
2023/04/13 04:01:35;;;;;;;3.25;1.27;;;;;;;;;;5057240;28;20502;-52
2023/04/13 04:04:01;;;;;;;3.05;1.15;;;;;;;;;;5066326;28;20053;-52
2023/04/13 04:06:28;;;;;;;5.38;1.60;;;;;;;;;;5059095;28;20443;-50
2023/04/13 04:08:55;;;;;;;2.42;1.40;;;;;;;;;;5056942;28;20056;-50
2023/04/13 04:11:21;;;;;;;5.45;1.25;;;;;;;;;;5064635;28;20065;-49
2023/04/13 04:13:48;;;;;;;3.17;1.48;;;;;;;;;;5066515;28;20060;-54
2023/04/13 04:16:15;;;;;;;4.47;1.33;;;;;;;;;;5065957;28;20045;-51
2023/04/13 04:18:41;;;;;;;8.98;1.80;;;;;;;;;;5066935;28;20108;-52
2023/04/13 04:21:08;;;;;;;6.40;1.48;;;;;;;;;;5064628;28;20053;-56
2023/04/13 04:23:36;;;;;;;4.32;1.27;;;;;;;;;;5056004;28;20065;-51
2023/04/13 04:26:03;;;;;;;5.57;1.00;;;;;;;;;;5065661;28;20056;-51
2023/04/13 04:28:29;;;;;;;4.00;1.30;;;;;;;;;;5070003;28;20062;-51
2023/04/13 04:31:00;;;;;;;4.57;1.05;;;;;;;;;;5079374;28;20163;-53
2023/04/13 04:33:26;;;;;;;1.48;0.82;;;;;;;;;;5074693;28;20057;-51
2023/04/13 04:35:53;;;;;;;3.05;1.00;;;;;;;;;;5065591;28;20511;-50
2023/04/13 04:38:21;;;;;;;3.92;1.40;;;;;;;;;;5065448;28;20052;-53
2023/04/13 04:40:48;;;;;;;2.50;0.80;;;;;;;;;;5067972;28;20053;-56
2023/04/13 04:43:14;;;;;;;5.00;1.23;;;;;;;;;;5064156;28;20049;-54
2023/04/13 04:45:45;;;;;;;5.38;1.20;;;;;;;;;;5065973;28;20059;-53
2023/04/13 04:48:12;;;;;;;3.38;1.35;;;;;;;;;;5069199;28;20053;-55
2023/04/13 04:50:43;;;;;;;5.95;1.10;;;;;;;;;;5070351;28;20140;-52
2023/04/13 04:53:10;;;;;;;7.32;1.15;;;;;;;;;;5060401;28;20433;-53
2023/04/13 04:55:37;;;;;;;2.53;1.00;;;;;;;;;;5046847;28;20417;-52
2023/04/13 04:58:04;;;;;;;6.60;1.08;;;;;;;;;;5054406;28;20057;-52
2023/04/13 05:00:30;;;;;;;5.88;1.60;;;;;;;;;;5063059;28;20062;-51
2023/04/13 05:02:59;;;;;;;5.25;1.23;;;;;;;;;;5072682;28;20550;-55
2023/04/13 05:05:27;;;;;;;5.40;1.45;;;;;;;;;;5070478;28;20049;-54
2023/04/13 05:07:53;;;;;;;10.68;1.42;;;;;;;;;;5064115;28;20084;-51
2023/04/13 05:10:23;;;;;;;3.30;1.38;;;;;;;;;;5060357;28;20053;-52
2023/04/13 05:12:49;;;;;;;4.57;1.30;;;;;;;;;;5056633;28;20053;-51
2023/04/13 05:15:16;;;;;;;3.78;1.10;;;;;;;;;;5066142;28;20498;-51
2023/04/13 05:17:45;;;;;;;4.82;1.58;;;;;;;;;;5065529;28;20573;-51
2023/04/13 05:20:12;;;;;;;7.35;2.05;;;;;;;;;;5052363;28;20566;-50
2023/04/13 05:22:39;;;;;;;8.25;1.67;;;;;;;;;;5064799;28;20512;-52
2023/04/13 05:25:05;;;;;;;9.05;2.15;;;;;;;;;;5059420;28;20053;-51
2023/04/13 05:27:32;;;;;;;6.38;1.35;;;;;;;;;;5061459;28;20143;-53
2023/04/13 05:29:58;;;;;;;6.75;1.77;;;;;;;;;;5086539;28;20059;-49
2023/04/13 05:32:25;;;;;;;7.82;1.55;;;;;;;;;;5069068;28;20107;-50
2023/04/13 05:34:51;;;;;;;8.05;1.50;;;;;;;;;;5071982;28;20519;-51
2023/04/13 05:37:18;;;;;;;9.70;1.92;;;;;;;;;;5054358;28;20057;-50
2023/04/13 05:39:44;;;;;;;10.30;1.55;;;;;;;;;;5058847;28;20053;-51
2023/04/13 05:42:10;;;;;;;5.75;1.77;;;;;;;;;;5057001;28;20060;-50
2023/04/13 05:44:37;;;;;;;6.85;1.65;;;;;;;;;;5076070;28;20063;-53
2023/04/13 05:47:03;;;;;;;5.30;1.52;;;;;;;;;;5069672;28;20626;-50
2023/04/13 05:49:30;;;;;;;5.38;1.48;;;;;;;;;;5064904;28;20049;-51
2023/04/13 05:51:56;;;;;;;6.18;1.60;;;;;;;;;;5045878;28;20053;-50
2023/04/13 05:54:23;;;;;;;7.25;1.98;;;;;;;;;;5045923;28;20061;-51
2023/04/13 05:56:50;;;;;;;10.05;1.42;;;;;;;;;;5061954;28;20060;-53
2023/04/13 05:59:16;;;;;;;6.78;1.95;;;;;;;;;;5061780;28;20053;-53
2023/04/13 06:01:42;;;;;;;3.00;1.30;;;;;;;;;;5066760;28;20049;-55
2023/04/13 06:04:10;;;;;;;7.70;1.65;;;;;;;;;;5070585;28;20521;-49
2023/04/13 06:06:37;;;;;;;3.65;1.45;;;;;;;;;;5055124;28;20049;-52
2023/04/13 06:09:04;;;;;;;5.43;1.88;;;;;;;;;;5060011;28;20111;-55
2023/04/13 06:11:30;;;;;;;9.43;2.00;;;;;;;;;;5075790;28;20590;-52
2023/04/13 06:13:57;;;;;;;5.72;1.63;;;;;;;;;;5064937;28;20080;-51
2023/04/13 06:16:25;;;;;;;6.53;1.50;;;;;;;;;;5064780;28;20559;-53
2023/04/13 06:18:52;;;;;;;4.60;1.60;;;;;;;;;;5064402;28;20053;-54
2023/04/13 06:21:18;;;;;;;10.10;1.58;;;;;;;;;;5064701;28;20460;-55
2023/04/13 06:23:45;;;;;;;3.67;2.45;;;;;;;;;;5064072;28;20073;-55
2023/04/13 06:26:11;;;;;;;3.55;1.52;;;;;;;;;;5064993;28;20141;-56
2023/04/13 06:28:38;;;;;;;6.18;1.70;;;;;;;;;;5075525;28;20049;-52
2023/04/13 06:31:05;;;;;;;6.50;1.40;;;;;;;;;;5061791;28;20077;-52
2023/04/13 06:33:32;;;;;;;4.82;2.00;;;;;;;;;;5057118;28;20064;-55
2023/04/13 06:35:58;;;;;;;3.97;1.70;;;;;;;;;;5066970;28;20499;-52
2023/04/13 06:38:26;;;;;;;1.77;1.48;;;;;;;;;;5061967;28;20153;-50
2023/04/13 06:40:52;;;;;;;6.95;1.50;;;;;;;;;;5059640;28;20053;-51
2023/04/13 06:43:19;;;;;;;5.95;1.80;;;;;;;;;;5054269;28;20100;-55
2023/04/13 06:45:58;;;;;;;2.38;1.40;;;;;;;;;;5058244;28;20053;-52
2023/04/13 06:48:25;;;;;;;8.32;1.98;;;;;;;;;;5069963;28;20511;-53
2023/04/13 06:50:54;;;;;;;3.10;1.10;;;;;;;;;;5067141;28;20554;-55
2023/04/13 06:53:20;;;;;;;9.55;1.75;;;;;;;;;;5048337;28;20049;-52
2023/04/13 06:55:47;;;;;;;2.78;0.88;;;;;;;;;;5076732;28;20052;-55
2023/04/13 06:58:13;;;;;;;3.28;1.30;;;;;;;;;;5068495;28;20056;-56
2023/04/13 07:00:40;;;;;;;7.78;1.35;;;;;;;;;;5056501;28;20050;-56
2023/04/13 07:03:06;;;;;;;3.97;1.50;;;;;;;;;;5064169;28;20127;-55
2023/04/13 07:05:33;;;;;;;2.40;1.45;;;;;;;;;;5057053;28;20081;-56
2023/04/13 07:08:00;;;;;;;6.65;1.35;;;;;;;;;;5055326;28;20081;-51
2023/04/13 07:10:26;;;;;;;5.57;1.25;;;;;;;;;;5079534;28;20595;-50
2023/04/13 07:12:52;;;;;;;3.72;1.10;;;;;;;;;;5064381;28;20167;-55
2023/04/13 07:15:19;;;;;;;4.85;1.20;;;;;;;;;;5066805;28;20053;-55
2023/04/13 07:17:45;;;;;;;3.20;1.50;;;;;;;;;;5059127;28;20053;-50
2023/04/13 07:20:12;;;;;;;4.05;1.52;;;;;;;;;;5057566;28;20064;-54
2023/04/13 07:22:38;;;;;;;4.90;1.92;;;;;;;;;;5067304;28;20057;-54
2023/04/13 07:25:05;;;;;;;9.18;2.20;;;;;;;;;;5083073;28;20056;-56
2023/04/13 07:27:32;;;;;;;7.40;1.73;;;;;;;;;;5084878;28;20052;-53
2023/04/13 07:30:00;;;;;;;6.22;2.10;;;;;;;;;;5079529;28;20057;-54
2023/04/13 07:32:27;;;;;;;4.47;1.92;;;;;;;;;;5069088;28;20057;-53
2023/04/13 07:35:00;;;;;;;10.75;1.98;;;;;;;;;;5066882;28;20048;-54
2023/04/13 07:37:26;;;;;;;7.65;2.40;;;;;;;;;;5060092;28;20229;-54
2023/04/13 07:39:53;;;;;;;9.52;2.47;;;;;;;;;;5073664;28;20080;-51
2023/04/13 07:42:19;;;;;;;7.85;2.13;;;;;;;;;;5057036;28;20573;-53
2023/04/13 07:44:46;;;;;;;7.90;2.13;;;;;;;;;;5048001;28;20850;-52
2023/04/13 07:47:12;;;;;;;10.23;2.50;;;;;;;;;;5069603;28;20061;-53
2023/04/13 07:49:39;;;;;;;9.50;1.88;;;;;;;;;;5047273;28;20054;-55
2023/04/13 07:52:05;;;;;;;7.00;1.63;;;;;;;;;;5081524;28;20052;-50
2023/04/13 07:54:33;;;;;;;7.57;1.95;;;;;;;;;;5085025;28;20048;-51
2023/04/13 07:57:01;;;;;;;8.57;1.77;;;;;;;;;;5087940;28;20064;-51
2023/04/13 07:59:28;;;;;;;6.40;1.50;;;;;;;;;;5069819;28;20058;-53
2023/04/13 08:01:55;;;;;;;5.28;2.00;;;;;;;;;;5071717;28;20510;-55
2023/04/13 08:04:21;;;;;;;10.10;2.08;;;;;;;;;;5068598;28;20114;-54
2023/04/13 08:06:48;;;;;;;7.43;2.17;;;;;;;;;;5077421;28;20049;-55
2023/04/13 08:09:14;;;;;;;8.43;1.95;;;;;;;;;;5064840;28;20107;-50
2023/04/13 08:11:41;;;;;;;9.18;1.88;;;;;;;;;;5067310;28;20056;-53
2023/04/13 08:14:08;;;;;;;14.77;2.15;;;;;;;;;;5066710;28;20045;-53
2023/04/13 08:16:35;;;;;;;6.65;2.05;;;;;;;;;;5065072;28;20135;-50
2023/04/13 08:19:01;;;;;;;10.88;2.40;;;;;;;;;;5081120;28;20529;-50
2023/04/13 08:21:28;;;;;;;15.02;2.55;;;;;;;;;;5079657;28;20055;-51
2023/04/13 08:23:55;;;;;;;9.90;2.08;;;;;;;;;;5066068;28;20057;-49
2023/04/13 08:26:22;;;;;;;3.80;1.50;;;;;;;;;;5080444;28;20580;-49
2023/04/13 08:28:48;;;;;;;14.45;2.55;;;;;;;;;;5083323;28;20741;-54
2023/04/13 08:31:14;;;;;;;16.20;2.72;;;;;;;;;;5066782;28;20163;-53
2023/04/13 08:33:42;;;;;;;10.52;2.38;;;;;;;;;;5064365;28;20118;-51
2023/04/13 08:36:08;;;;;;;7.60;2.20;;;;;;;;;;5068563;28;20148;-52
2023/04/13 08:38:35;;;;;;;13.57;2.45;;;;;;;;;;5061848;28;20057;-51
2023/04/13 08:41:02;;;;;;;10.63;2.55;;;;;;;;;;5069461;28;20180;-52
2023/04/13 08:43:31;;;;;;;18.45;2.17;;;;;;;;;;5071666;28;20064;-49
2023/04/13 08:45:57;;;;;;;11.52;2.40;;;;;;;;;;5075475;28;20534;-53
2023/04/13 08:48:24;;;;;;;9.32;1.98;;;;;;;;;;5087256;28;20502;-52
2023/04/13 08:50:52;;;;;;;12.20;3.17;;;;;;;;;;5078365;28;20132;-53
2023/04/13 08:53:18;;;;;;;11.13;2.17;;;;;;;;;;5069251;28;20121;-51
2023/04/13 08:55:46;;;;;;;8.80;2.38;;;;;;;;;;5066010;28;20061;-53
2023/04/13 08:58:15;;;;;;;6.93;1.52;;;;;;;;;;5068966;28;20059;-50
2023/04/13 09:00:42;;;;;;;12.07;2.63;;;;;;;;;;5058272;28;20056;-51
2023/04/13 09:03:10;;;;;;;7.70;2.28;;;;;;;;;;5079434;28;20048;-53
2023/04/13 09:05:40;;;;;;;10.05;2.20;;;;;;;;;;5045710;28;20144;-53
2023/04/13 09:08:08;;;;;;;9.23;1.85;;;;;;;;;;5057251;28;20049;-55
2023/04/13 09:10:34;;;;;;;11.38;2.15;;;;;;;;;;5068184;28;20052;-50
2023/04/13 09:13:01;;;;;;;9.40;2.42;;;;;;;;;;5078858;28;20049;-55
2023/04/13 09:15:29;;;;;;;10.63;1.67;;;;;;;;;;5086917;28;20109;-56
2023/04/13 09:18:04;;;;;;;10.98;2.35;;;;;;;;;;5085474;28;20110;-54
2023/04/13 09:20:31;;;;;;;7.35;2.00;;;;;;;;;;5081636;28;20585;-54
2023/04/13 09:22:57;;;;;;;9.25;1.65;;;;;;;;;;5070046;28;20492;-50
2023/04/13 09:25:26;;;;;;;6.85;1.83;;;;;;;;;;5072127;28;20052;-55
2023/04/13 09:27:53;;;;;;;6.90;1.90;;;;;;;;;;5068910;28;20049;-53
2023/04/13 09:30:20;;;;;;;11.95;2.40;;;;;;;;;;5071649;28;20056;-54
2023/04/13 09:32:47;;;;;;;10.13;1.67;;;;;;;;;;5067203;28;20474;-54
2023/04/13 09:35:13;;;;;;;10.75;2.08;;;;;;;;;;5063430;28;20053;-53
2023/04/13 09:37:42;;;;;;;10.88;1.80;;;;;;;;;;5068725;28;20068;-51
2023/04/13 09:40:17;;;;;;;8.68;2.60;;;;;;;;;;5064421;28;20049;-52
2023/04/13 09:42:54;;;;;;;15.23;2.13;;;;;;;;;;5066059;28;20057;-54
2023/04/13 09:45:21;;;;;;;8.20;1.75;;;;;;;;;;5068180;28;20099;-54
2023/04/13 09:47:48;;;;;;;11.45;2.10;;;;;;;;;;5094780;27;20083;-56
2023/04/13 09:50:17;;;;;;;8.85;1.95;;;;;;;;;;5060583;28;20057;-57
2023/04/13 09:52:44;;;;;;;7.28;1.92;;;;;;;;;;5065851;28;20060;-53
2023/04/13 09:55:17;;;;;;;11.38;2.35;;;;;;;;;;5065744;28;20061;-56
2023/04/13 09:57:43;;;;;;;7.57;1.80;;;;;;;;;;5065891;28;20431;-54
2023/04/13 10:00:19;;;;;;;8.48;2.42;;;;;;;;;;5065538;28;20450;-52
2023/04/13 10:02:52;;;;;;;9.63;1.33;;;;;;;;;;5064697;28;20056;-55
2023/04/13 10:05:19;;;;;;;11.43;2.03;;;;;;;;;;5066462;28;20048;-55
2023/04/13 10:07:46;;;;;;;8.02;1.63;;;;;;;;;;5085086;28;20126;-55
2023/04/13 10:10:13;;;;;;;8.82;1.75;;;;;;;;;;5083914;28;20528;-53
2023/04/13 10:12:41;;;;;;;9.68;2.33;;;;;;;;;;5081920;28;20264;-54
2023/04/13 10:15:19;;;;;;;5.82;1.50;;;;;;;;;;5065184;28;20073;-55
2023/04/13 10:17:54;;;;;;;9.95;2.25;;;;;;;;;;5059263;28;20547;-56
2023/04/13 10:20:21;;;;;;;7.90;1.58;;;;;;;;;;5063869;28;20049;-52
2023/04/13 10:22:48;;;;;;;7.35;1.95;;;;;;;;;;5063320;28;20140;-55
2023/04/13 10:25:14;;;;;;;7.07;1.55;;;;;;;;;;5065349;28;20057;-53
2023/04/13 10:27:57;;;;;;;7.43;1.55;;;;;;;;;;5065368;28;20049;-53
2023/04/13 10:30:24;;;;;;;10.48;1.45;;;;;;;;;;5066655;28;20065;-51
2023/04/13 10:33:04;;;;;;;9.88;1.80;;;;;;;;;;5067314;28;20167;-53
2023/04/13 10:35:33;;;;;;;8.57;2.10;;;;;;;;;;5045976;28;20617;-56
2023/04/13 10:38:00;;;;;;;10.20;2.05;;;;;;;;;;5058977;28;20056;-55
2023/04/13 10:40:26;;;;;;;10.18;2.50;;;;;;;;;;5062774;28;20056;-51
2023/04/13 10:42:52;;;;;;;13.80;2.47;;;;;;;;;;5050692;28;20049;-53
2023/04/13 10:45:20;;;;;;;5.55;1.20;;;;;;;;;;5050342;28;20582;-53
2023/04/13 10:47:47;;;;;;;13.40;2.00;;;;;;;;;;5059180;28;20060;-51
2023/04/13 10:50:21;;;;;;;14.10;2.20;;;;;;;;;;5064408;28;20057;-56
2023/04/13 10:52:59;;;;;;;10.98;2.15;;;;;;;;;;5076097;28;20075;-55
2023/04/13 10:55:26;;;;;;;9.70;2.05;;;;;;;;;;5077327;28;20051;-53
2023/04/13 10:57:53;;;;;;;9.70;1.80;;;;;;;;;;5073498;28;20056;-56
2023/04/13 11:00:23;;;;;;;9.13;1.65;;;;;;;;;;5063634;28;20057;-54
2023/04/13 11:03:10;;;;;;;12.23;1.77;;;;;;;;;;5064922;28;20053;-56
2023/04/13 11:05:37;;;;;;;7.40;1.45;;;;;;;;;;5058708;28;20084;-51
2023/04/13 11:08:03;;;;;;;6.60;1.55;;;;;;;;;;5057721;28;20491;-56
2023/04/13 11:10:30;;;;;;;12.20;2.13;;;;;;;;;;5061229;28;20055;-52
2023/04/13 11:12:57;;;;;;;8.55;1.42;;;;;;;;;;5066632;28;20596;-54
2023/04/13 11:15:28;;;;;;;9.98;1.60;;;;;;;;;;5065966;28;20044;-52
2023/04/13 11:17:56;;;;;;;8.43;1.45;;;;;;;;;;5069391;28;20143;-52
2023/04/13 11:20:30;;;;;;;4.65;1.45;;;;;;;;;;5072857;28;20057;-54
2023/04/13 11:22:56;;;;;;;5.35;2.17;;;;;;;;;;5062319;28;20053;-54
2023/04/13 11:25:23;;;;;;;9.65;2.17;;;;;;;;;;5058113;28;20520;-53
2023/04/13 11:27:57;;;;;;;10.73;2.25;;;;;;;;;;5066580;28;20524;-53
2023/04/13 11:30:24;;;;;;;8.32;1.98;;;;;;;;;;5054435;28;20053;-52
2023/04/13 11:32:52;;;;;;;9.05;1.73;;;;;;;;;;5072708;28;20052;-55
2023/04/13 11:35:19;;;;;;;13.80;1.95;;;;;;;;;;5075581;28;20491;-54
2023/04/13 11:37:51;;;;;;;9.70;1.75;;;;;;;;;;5064552;28;20068;-52
2023/04/13 11:40:20;;;;;;;7.45;1.70;;;;;;;;;;5077813;28;20110;-57
2023/04/13 11:42:48;;;;;;;8.85;1.88;;;;;;;;;;5069051;28;20490;-54
2023/04/13 11:45:15;;;;;;;9.98;2.00;;;;;;;;;;5056700;28;20084;-57
2023/04/13 11:47:42;;;;;;;12.43;2.50;;;;;;;;;;5067544;28;20049;-53
2023/04/13 11:50:11;;;;;;;8.77;3.10;;;;;;;;;;5064183;28;20059;-56
2023/04/13 11:52:41;;;;;;;6.30;1.60;;;;;;;;;;5060928;28;20079;-58
2023/04/13 11:55:08;;;;;;;10.43;2.13;;;;;;;;;;5064119;28;20053;-54
2023/04/13 11:57:48;;;;;;;10.48;1.88;;;;;;;;;;5073042;28;20075;-54
2023/04/13 12:00:20;;;;;;;12.27;2.45;;;;;;;;;;5063591;28;20068;-54
2023/04/13 12:02:47;;;;;;;9.52;1.63;;;;;;;;;;5072563;28;20049;-55
2023/04/13 12:05:29;;;;;;;7.53;1.85;;;;;;;;;;5071422;28;20080;-52
2023/04/13 12:07:57;;;;;;;11.68;1.65;;;;;;;;;;5071726;28;20112;-52
2023/04/13 12:10:25;;;;;;;13.20;2.22;;;;;;;;;;5063096;28;20490;-51
2023/04/13 12:13:08;;;;;;;11.02;1.90;;;;;;;;;;5044608;28;20138;-56
2023/04/13 12:15:49;;;;;;;8.75;1.70;;;;;;;;;;5051762;28;20527;-54
2023/04/13 12:18:41;;;;;;;5.22;2.10;;;;;;;;;;5062230;28;20621;-57
2023/04/13 12:21:14;;;;;;;7.53;2.77;;;;;;;;;;5079047;28;20424;-52
2023/04/13 12:23:54;;;;;;;7.07;1.52;;;;;;;;;;5068070;28;20060;-56
2023/04/13 12:26:23;;;;;;;6.97;1.58;;;;;;;;;;5064405;28;20588;-56
2023/04/13 12:28:56;;;;;;;9.63;2.22;;;;;;;;;;5072268;28;20067;-54
2023/04/13 12:31:22;;;;;;;7.75;1.85;;;;;;;;;;5057803;28;20107;-56
2023/04/13 12:33:50;;;;;;;14.23;2.55;;;;;;;;;;5066481;28;20427;-52
2023/04/13 12:36:16;;;;;;;9.93;2.63;;;;;;;;;;5067991;28;20053;-54
2023/04/13 12:38:43;;;;;;;8.23;1.63;;;;;;;;;;5073022;28;20099;-54
2023/04/13 12:41:09;;;;;;;7.80;1.60;;;;;;;;;;5077865;28;20052;-57
2023/04/13 12:43:36;;;;;;;8.07;2.70;;;;;;;;;;5063494;28;20056;-52
2023/04/13 12:46:03;;;;;;;10.48;1.67;;;;;;;;;;5062810;28;20154;-57
2023/04/13 12:48:29;;;;;;;7.43;1.90;;;;;;;;;;5062899;28;20136;-53
2023/04/13 12:50:56;;;;;;;7.35;1.67;;;;;;;;;;5065650;28;20045;-55
2023/04/13 12:53:22;;;;;;;8.43;2.05;;;;;;;;;;5063415;28;20511;-55
2023/04/13 12:55:48;;;;;;;6.30;1.73;;;;;;;;;;5062667;28;20060;-55
2023/04/13 12:58:15;;;;;;;8.85;1.63;;;;;;;;;;5061772;28;20056;-51
2023/04/13 13:00:41;;;;;;;10.48;2.28;;;;;;;;;;5065425;28;20156;-56
2023/04/13 13:03:10;;;;;;;12.10;1.52;;;;;;;;;;5062354;28;20053;-57
2023/04/13 13:05:40;;;;;;;11.23;2.20;;;;;;;;;;5066753;28;20515;-53
2023/04/13 13:08:07;;;;;;;7.82;2.47;;;;;;;;;;5060977;28;20083;-53
2023/04/13 13:10:35;;;;;;;9.40;1.95;;;;;;;;;;5067344;28;20044;-54
2023/04/13 13:13:02;;;;;;;7.80;1.50;;;;;;;;;;5061306;28;20099;-53
2023/04/13 13:15:30;;;;;;;9.85;1.98;;;;;;;;;;5063442;28;20053;-54
2023/04/13 13:17:57;;;;;;;11.55;1.92;;;;;;;;;;5063315;28;20093;-55
2023/04/13 13:20:23;;;;;;;5.40;1.50;;;;;;;;;;5069101;28;20492;-57
2023/04/13 13:22:50;;;;;;;8.48;1.90;;;;;;;;;;5057204;28;20088;-56
2023/04/13 13:25:16;;;;;;;8.77;2.17;;;;;;;;;;5078444;28;20203;-55
2023/04/13 13:27:43;;;;;;;4.18;1.52;;;;;;;;;;5055266;28;20092;-56
2023/04/13 13:30:13;;;;;;;9.85;2.28;;;;;;;;;;5058690;28;20057;-54
2023/04/13 13:32:39;;;;;;;5.65;1.70;;;;;;;;;;5067697;28;20122;-58
2023/04/13 13:35:09;;;;;;;5.55;1.50;;;;;;;;;;5062207;28;20052;-54
2023/04/13 13:37:36;;;;;;;6.25;1.40;;;;;;;;;;5063499;28;20537;-54
2023/04/13 13:40:11;;;;;;;7.57;1.92;;;;;;;;;;5071760;28;20055;-53
2023/04/13 13:42:38;;;;;;;7.10;1.58;;;;;;;;;;5075348;28;20136;-55
2023/04/13 13:45:17;;;;;;;9.55;2.65;;;;;;;;;;5065697;28;20049;-55
2023/04/13 13:47:45;;;;;;;11.38;1.48;;;;;;;;;;5062293;28;20053;-55
2023/04/13 13:50:11;;;;;;;6.15;1.77;;;;;;;;;;5062965;28;20052;-52
2023/04/13 13:52:37;;;;;;;6.68;1.25;;;;;;;;;;5062283;28;20084;-52
2023/04/13 13:55:19;;;;;;;6.38;1.50;;;;;;;;;;5060109;28;20084;-54
2023/04/13 13:57:48;;;;;;;5.75;1.25;;;;;;;;;;5072455;28;20917;-55
2023/04/13 14:00:16;;;;;;;9.18;1.77;;;;;;;;;;5051972;28;20060;-53
2023/04/13 14:02:43;;;;;;;6.28;1.65;;;;;;;;;;5061599;28;20103;-54
2023/04/13 14:05:12;;;;;;;8.20;1.77;;;;;;;;;;5071352;28;20056;-53
2023/04/13 14:07:39;;;;;;;11.68;2.47;;;;;;;;;;5067938;28;20533;-55
2023/04/13 14:10:06;;;;;;;9.43;1.63;;;;;;;;;;5069782;28;20059;-53
2023/04/13 14:12:33;;;;;;;7.22;1.25;;;;;;;;;;5076974;28;20523;-54
2023/04/13 14:14:59;;;;;;;5.32;1.45;;;;;;;;;;5062181;28;20057;-52
2023/04/13 14:17:26;;;;;;;6.88;1.58;;;;;;;;;;5071632;28;20482;-50
2023/04/13 14:19:52;;;;;;;9.20;1.92;;;;;;;;;;5065260;28;22308;-54
2023/04/13 14:22:19;;;;;;;3.65;1.02;;;;;;;;;;5077589;28;20053;-55
2023/04/13 14:24:45;;;;;;;10.32;1.95;;;;;;;;;;5067789;28;20063;-51
2023/04/13 14:27:11;;;;;;;6.32;1.60;;;;;;;;;;5064953;28;20053;-55
2023/04/13 14:29:38;;;;;;;7.78;1.77;;;;;;;;;;5065699;28;20575;-55
2023/04/13 14:32:04;;;;;;;4.85;1.60;;;;;;;;;;5068836;28;20053;-54
2023/04/13 14:34:30;;;;;;;5.95;1.48;;;;;;;;;;5065044;28;20127;-49
2023/04/13 14:36:57;;;;;;;5.15;1.38;;;;;;;;;;5062740;28;20142;-54
2023/04/13 14:39:24;;;;;;;8.75;1.83;;;;;;;;;;5058626;28;20057;-53
2023/04/13 14:41:51;;;;;;;8.90;1.50;;;;;;;;;;5064021;28;20049;-50
2023/04/13 14:44:19;;;;;;;9.43;1.83;;;;;;;;;;5065654;28;20617;-52
2023/04/13 14:46:46;;;;;;;9.02;1.70;;;;;;;;;;5067656;28;20176;-53